Time;durP1;ratioP1;P1;durP2;ratioP2;P2;SDS_P1;SDS_P2;PMS_P1;PMS_P2;Temp;Humidity;BMP_temperature;BMP_pressure;BME280_temperature;BME280_humidity;BME280_pressure;Samples;Min_cycle;Max_cycle;Signal;HPM_P1;HPM_P2
2020/12/17 00:00:30;;;;;;;15.93;3.33;;;11.50;89.10;;;;;;5035264;28;20045;-74
2020/12/17 00:02:56;;;;;;;15.27;3.20;;;11.50;89.10;;;;;;5034896;28;20049;-74
2020/12/17 00:05:22;;;;;;;10.95;2.53;;;11.60;89.20;;;;;;5035344;28;20037;-74
2020/12/17 00:07:47;;;;;;;10.18;2.28;;;11.50;89.20;;;;;;5045698;28;20041;-74
2020/12/17 00:10:14;;;;;;;10.10;2.17;;;11.60;89.10;;;;;;5045138;28;20099;-74
2020/12/17 00:12:42;;;;;;;15.52;2.00;;;11.40;88.50;;;;;;5035164;28;20432;-74
2020/12/17 00:15:10;;;;;;;13.80;2.00;;;11.40;88.10;;;;;;5035200;28;20095;-74
2020/12/17 00:17:51;;;;;;;12.80;1.80;;;11.20;88.10;;;;;;5035061;28;20033;-74
2020/12/17 00:20:20;;;;;;;15.10;1.20;;;11.30;87.90;;;;;;5034752;28;20152;-74
2020/12/17 00:22:46;;;;;;;10.82;1.17;;;11.10;88.10;;;;;;5044609;28;20609;-74
2020/12/17 00:25:15;;;;;;;10.20;1.15;;;10.90;88.00;;;;;;5049797;28;20037;-74
2020/12/17 00:27:41;;;;;;;10.25;1.15;;;10.90;88.10;;;;;;5038419;28;20041;-74
2020/12/17 00:30:11;;;;;;;15.20;1.35;;;11.00;88.30;;;;;;5054830;28;20033;-74
2020/12/17 00:32:40;;;;;;;12.90;0.98;;;10.70;88.20;;;;;;5054496;28;20045;-74
2020/12/17 00:35:07;;;;;;;12.57;0.88;;;10.30;88.10;;;;;;5054489;28;20028;-74
2020/12/17 00:37:34;;;;;;;7.75;1.08;;;10.50;88.20;;;;;;5054826;28;20045;-74
2020/12/17 00:40:03;;;;;;;8.85;0.60;;;10.50;88.30;;;;;;5054308;28;20067;-74
2020/12/17 00:42:29;;;;;;;6.25;0.60;;;10.60;88.60;;;;;;5036732;28;20100;-74
2020/12/17 00:44:55;;;;;;;9.52;0.65;;;10.60;88.90;;;;;;5054150;28;20088;-74
2020/12/17 00:47:21;;;;;;;5.95;0.52;;;10.80;88.80;;;;;;5054113;28;20555;-74
2020/12/17 00:49:46;;;;;;;7.10;0.45;;;10.60;88.80;;;;;;5054397;28;20082;-74
2020/12/17 00:52:12;;;;;;;6.63;0.32;;;10.60;88.70;;;;;;5054304;28;20044;-74
2020/12/17 00:54:41;;;;;;;9.95;0.30;;;10.80;89.10;;;;;;5054238;28;20060;-74
2020/12/17 00:57:08;;;;;;;8.98;0.30;;;10.70;89.30;;;;;;5054609;28;20076;-74
2020/12/17 00:59:34;;;;;;;7.80;0.40;;;10.60;89.10;;;;;;5054545;28;20040;-74
2020/12/17 01:02:00;;;;;;;5.40;0.25;;;10.60;89.00;;;;;;5054323;28;20037;-74
2020/12/17 01:04:26;;;;;;;9.02;0.47;;;10.70;89.00;;;;;;5054304;28;20088;-74
2020/12/17 01:06:52;;;;;;;3.90;0.10;;;10.40;88.70;;;;;;5054368;28;20055;-74
2020/12/17 01:09:18;;;;;;;7.20;0.17;;;10.70;89.00;;;;;;5054088;28;20045;-74
2020/12/17 01:11:44;;;;;;;8.82;0.50;;;10.10;88.30;;;;;;5053727;28;20037;-74
2020/12/17 01:14:09;;;;;;;8.55;0.25;;;10.30;88.30;;;;;;5054093;28;20052;-74
2020/12/17 01:16:35;;;;;;;11.60;0.32;;;10.50;88.50;;;;;;5054133;28;20495;-74
2020/12/17 01:19:01;;;;;;;5.78;0.50;;;10.50;88.30;;;;;;5053935;28;20585;-74
2020/12/17 01:21:27;;;;;;;8.75;0.60;;;10.30;88.00;;;;;;5053959;28;20427;-74
2020/12/17 01:23:53;;;;;;;12.88;0.60;;;10.40;88.10;;;;;;5053955;28;20120;-74
2020/12/17 01:26:18;;;;;;;9.95;0.68;;;10.20;88.10;;;;;;5053972;28;20071;-74
2020/12/17 01:28:44;;;;;;;10.52;0.70;;;10.40;88.10;;;;;;5054070;28;20583;-74
2020/12/17 01:31:14;;;;;;;11.45;1.00;;;10.40;88.20;;;;;;5053813;28;20523;-74
2020/12/17 01:33:41;;;;;;;9.10;0.55;;;10.00;87.80;;;;;;5053917;28;20120;-74
2020/12/17 01:36:10;;;;;;;9.63;0.98;;;10.20;87.90;;;;;;5054292;28;20036;-74
2020/12/17 01:38:37;;;;;;;12.70;1.10;;;10.00;87.90;;;;;;5053762;28;20391;-74
2020/12/17 01:41:03;;;;;;;15.55;1.60;;;9.80;88.00;;;;;;5053933;28;20040;-74
2020/12/17 01:43:43;;;;;;;11.85;1.27;;;9.90;88.10;;;;;;5053597;28;20033;-74
2020/12/17 01:46:11;;;;;;;8.32;0.80;;;9.90;88.00;;;;;;5053507;28;20068;-74
2020/12/17 01:48:37;;;;;;;12.48;1.25;;;9.70;87.90;;;;;;5054090;28;20041;-74
2020/12/17 01:51:04;;;;;;;16.67;1.33;;;9.60;87.60;;;;;;5054104;28;20033;-74
2020/12/17 01:53:40;;;;;;;11.25;1.30;;;9.90;88.10;;;;;;5054139;28;20124;-74
2020/12/17 01:56:21;;;;;;;10.88;1.08;;;9.50;88.10;;;;;;5053876;28;20064;-74
2020/12/17 01:59:12;;;;;;;11.32;0.93;;;9.80;88.00;;;;;;5053855;28;20120;-74
2020/12/17 02:01:43;;;;;;;8.25;1.20;;;9.60;87.50;;;;;;5057442;28;20071;-74
2020/12/17 02:04:10;;;;;;;19.67;2.08;;;9.90;87.80;;;;;;5057405;28;20081;-74
2020/12/17 02:06:36;;;;;;;11.40;1.58;;;9.80;87.90;;;;;;5057453;28;20036;-74
2020/12/17 02:09:03;;;;;;;14.18;1.90;;;9.80;88.20;;;;;;5056661;28;20051;-74
2020/12/17 02:11:29;;;;;;;10.77;1.80;;;9.90;88.50;;;;;;5056259;28;20496;-74
2020/12/17 02:13:55;;;;;;;13.10;1.48;;;9.90;88.50;;;;;;5057162;28;20045;-74
2020/12/17 02:16:21;;;;;;;13.88;1.00;;;9.70;88.20;;;;;;5045543;28;20044;-74
2020/12/17 02:18:49;;;;;;;17.65;1.33;;;10.10;88.40;;;;;;5037040;28;20528;-74
2020/12/17 02:21:21;;;;;;;13.48;1.33;;;10.10;88.50;;;;;;5037430;28;20041;-74
2020/12/17 02:23:47;;;;;;;13.38;1.00;;;9.90;88.80;;;;;;5037272;28;20041;-74
2020/12/17 02:26:13;;;;;;;15.60;1.67;;;10.00;89.30;;;;;;5036108;28;20059;-74
2020/12/17 02:28:40;;;;;;;12.00;1.30;;;9.80;89.40;;;;;;5054495;28;20494;-74
2020/12/17 02:31:06;;;;;;;11.77;1.20;;;10.50;89.70;;;;;;5057136;28;20036;-74
2020/12/17 02:33:32;;;;;;;12.60;1.58;;;10.30;89.60;;;;;;5039405;28;20112;-74
2020/12/17 02:35:58;;;;;;;11.50;1.60;;;10.50;89.60;;;;;;5057005;28;20029;-74
2020/12/17 02:38:24;;;;;;;17.42;1.50;;;10.70;90.00;;;;;;5057074;28;20041;-73
2020/12/17 02:40:51;;;;;;;12.57;1.48;;;10.60;89.90;;;;;;5056733;28;20076;-74
2020/12/17 02:43:16;;;;;;;13.02;1.77;;;10.60;89.90;;;;;;5056255;28;20492;-74
2020/12/17 02:45:47;;;;;;;11.65;1.10;;;10.90;90.00;;;;;;5056145;28;20047;-74
2020/12/17 02:48:13;;;;;;;13.45;0.80;;;11.00;89.70;;;;;;5056736;28;20039;-74
2020/12/17 02:50:41;;;;;;;12.95;0.95;;;10.90;89.60;;;;;;5055643;28;20040;-74
2020/12/17 02:53:08;;;;;;;13.48;1.00;;;10.90;89.40;;;;;;5055749;28;20044;-74
2020/12/17 02:55:35;;;;;;;13.13;0.63;;;11.10;89.20;;;;;;5054583;28;20044;-74
2020/12/17 02:58:00;;;;;;;20.20;0.98;;;10.40;88.60;;;;;;5053942;28;20488;-74
2020/12/17 03:00:26;;;;;;;13.45;1.10;;;10.50;88.60;;;;;;5053454;28;20052;-74
2020/12/17 03:02:52;;;;;;;7.70;0.50;;;11.00;88.80;;;;;;5038978;28;20072;-74
2020/12/17 03:05:18;;;;;;;17.60;0.98;;;10.60;88.80;;;;;;5055862;28;20029;-74
2020/12/17 03:07:44;;;;;;;14.20;0.77;;;10.30;88.90;;;;;;5050474;28;20497;-74
2020/12/17 03:10:13;;;;;;;17.85;1.23;;;10.60;89.70;;;;;;5035294;28;20033;-74
2020/12/17 03:12:41;;;;;;;13.68;0.95;;;10.60;90.00;;;;;;5035496;28;20071;-74
2020/12/17 03:15:08;;;;;;;14.75;0.70;;;10.80;90.10;;;;;;5035966;28;20044;-74
2020/12/17 03:17:34;;;;;;;15.40;0.82;;;10.70;90.10;;;;;;5035691;28;20037;-74
2020/12/17 03:20:00;;;;;;;10.48;0.93;;;11.10;90.10;;;;;;5035482;28;20045;-74
2020/12/17 03:22:26;;;;;;;10.30;0.85;;;11.00;90.10;;;;;;5035733;28;20041;-74
2020/12/17 03:24:52;;;;;;;8.77;1.27;;;11.10;90.00;;;;;;5035859;28;20051;-74
2020/12/17 03:27:17;;;;;;;9.48;1.10;;;10.80;89.80;;;;;;5035972;28;20037;-74
2020/12/17 03:29:43;;;;;;;11.70;1.17;;;10.70;89.60;;;;;;5035714;28;20049;-74
2020/12/17 03:32:09;;;;;;;19.20;1.80;;;11.00;89.70;;;;;;5040648;28;20365;-74
2020/12/17 03:34:35;;;;;;;11.07;1.35;;;11.10;89.70;;;;;;5055339;28;20496;-74
2020/12/17 03:37:01;;;;;;;6.88;1.08;;;11.10;89.30;;;;;;5055261;28;20504;-74
2020/12/17 03:39:26;;;;;;;7.65;1.40;;;10.80;88.80;;;;;;5055347;28;20049;-74
2020/12/17 03:41:52;;;;;;;12.25;1.42;;;10.80;88.40;;;;;;5055036;28;20087;-74
2020/12/17 03:44:18;;;;;;;9.90;1.15;;;10.70;88.40;;;;;;5055418;28;20480;-74
2020/12/17 03:46:44;;;;;;;8.90;1.00;;;10.80;88.70;;;;;;5036946;28;20111;-74
2020/12/17 03:49:09;;;;;;;7.93;0.60;;;10.80;88.70;;;;;;5054944;28;20041;-74
2020/12/17 03:51:37;;;;;;;10.93;0.82;;;10.70;88.70;;;;;;5055138;28;20122;-74
2020/12/17 03:54:04;;;;;;;7.55;0.40;;;10.60;88.40;;;;;;5055295;28;20048;-74
2020/12/17 03:56:31;;;;;;;12.20;0.60;;;10.40;88.30;;;;;;5055091;28;20041;-74
2020/12/17 03:58:56;;;;;;;11.52;0.90;;;10.10;88.30;;;;;;5054658;28;20069;-74
2020/12/17 04:01:22;;;;;;;14.48;0.70;;;10.30;88.70;;;;;;5054961;28;20133;-74
2020/12/17 04:03:48;;;;;;;12.18;0.57;;;10.40;89.00;;;;;;5054640;28;20435;-74
2020/12/17 04:06:14;;;;;;;13.68;0.50;;;10.40;89.20;;;;;;5054623;28;20036;-74
2020/12/17 04:08:42;;;;;;;14.77;0.60;;;10.40;89.30;;;;;;5054920;28;20493;-74
2020/12/17 04:11:09;;;;;;;12.40;0.40;;;10.30;89.10;;;;;;5054909;28;20124;-74
2020/12/17 04:13:35;;;;;;;13.15;0.52;;;10.20;88.90;;;;;;5037433;28;20087;-74
2020/12/17 04:16:02;;;;;;;11.07;0.50;;;10.10;89.00;;;;;;5034706;28;20461;-74
2020/12/17 04:18:28;;;;;;;13.38;0.73;;;10.40;89.30;;;;;;5034240;28;20059;-74
2020/12/17 04:20:54;;;;;;;6.90;0.60;;;10.30;89.20;;;;;;5034367;28;20104;-74
2020/12/17 04:23:20;;;;;;;13.00;0.60;;;10.10;88.90;;;;;;5033628;28;20501;-74
2020/12/17 04:25:46;;;;;;;11.60;0.55;;;10.40;89.10;;;;;;5034558;28;20037;-74
2020/12/17 04:28:12;;;;;;;12.27;0.40;;;10.20;88.90;;;;;;5034582;28;20542;-74
2020/12/17 04:30:38;;;;;;;8.45;0.65;;;10.20;88.90;;;;;;5034720;28;20041;-74
2020/12/17 04:33:04;;;;;;;10.77;0.57;;;10.10;88.90;;;;;;5034720;28;20091;-74
2020/12/17 04:35:30;;;;;;;17.02;0.60;;;10.10;88.90;;;;;;5034307;28;20060;-74
2020/12/17 04:37:56;;;;;;;9.13;0.40;;;10.20;88.90;;;;;;5034734;28;20048;-74
2020/12/17 04:40:22;;;;;;;12.70;0.43;;;9.80;89.00;;;;;;5034444;28;20045;-74
2020/12/17 04:42:48;;;;;;;12.45;0.63;;;9.90;88.40;;;;;;5034088;28;20030;-74
2020/12/17 04:45:15;;;;;;;7.70;0.40;;;10.10;88.50;;;;;;5034464;28;20057;-74
2020/12/17 04:47:45;;;;;;;10.02;0.40;;;10.00;88.80;;;;;;5034064;28;20084;-74
2020/12/17 04:50:14;;;;;;;6.65;0.30;;;10.20;89.00;;;;;;5033092;28;20117;-74
2020/12/17 04:52:41;;;;;;;13.45;0.50;;;9.90;88.90;;;;;;5032890;28;20448;-74
2020/12/17 04:55:08;;;;;;;10.82;0.45;;;10.20;89.20;;;;;;5034159;28;20128;-74
2020/12/17 04:57:43;;;;;;;8.40;0.40;;;10.20;89.30;;;;;;5033628;28;20064;-74
2020/12/17 05:00:09;;;;;;;12.50;0.73;;;9.90;89.30;;;;;;5034329;28;20144;-74
2020/12/17 05:02:36;;;;;;;16.58;0.90;;;10.20;89.60;;;;;;5033937;28;20128;-74
2020/12/17 05:05:02;;;;;;;14.95;0.70;;;10.00;89.60;;;;;;5034510;28;20072;-74
2020/12/17 05:07:28;;;;;;;14.02;0.60;;;10.00;89.40;;;;;;5034007;28;20129;-74
2020/12/17 05:09:54;;;;;;;12.60;0.52;;;9.90;89.50;;;;;;5033258;28;20128;-74
2020/12/17 05:12:20;;;;;;;11.40;0.60;;;9.80;89.30;;;;;;5034325;28;20037;-74
2020/12/17 05:14:47;;;;;;;11.70;0.60;;;10.00;89.10;;;;;;5034317;28;20049;-74
2020/12/17 05:17:13;;;;;;;15.00;0.77;;;10.10;88.90;;;;;;5034221;28;20033;-74
2020/12/17 05:19:42;;;;;;;13.65;0.93;;;9.80;88.70;;;;;;5034014;28;20049;-74
2020/12/17 05:22:13;;;;;;;7.85;0.55;;;9.80;88.90;;;;;;5034309;28;20041;-74
2020/12/17 05:24:45;;;;;;;10.98;0.57;;;9.70;89.10;;;;;;5032819;28;20044;-74
2020/12/17 05:27:11;;;;;;;9.80;0.55;;;10.00;89.20;;;;;;5034094;28;20052;-74
2020/12/17 05:29:38;;;;;;;16.23;0.80;;;9.90;89.30;;;;;;5033404;28;20092;-74
2020/12/17 05:32:08;;;;;;;12.15;0.50;;;10.10;89.60;;;;;;5032612;28;20557;-74
2020/12/17 05:34:35;;;;;;;11.77;0.40;;;10.00;89.50;;;;;;5035773;28;20049;-74
2020/12/17 05:37:02;;;;;;;10.98;0.47;;;10.00;89.30;;;;;;5035799;28;20504;-74
2020/12/17 05:39:28;;;;;;;10.57;0.82;;;9.70;88.70;;;;;;5036573;28;20060;-74
2020/12/17 05:41:55;;;;;;;17.17;1.33;;;9.80;88.40;;;;;;5025312;28;20045;-74
2020/12/17 05:44:31;;;;;;;18.70;3.67;;;9.80;88.40;;;;;;5017651;28;20072;-74
2020/12/17 05:46:57;;;;;;;25.90;7.05;;;9.70;88.40;;;;;;5016919;28;20105;-74
2020/12/17 05:49:28;;;;;;;16.90;4.75;;;9.90;88.80;;;;;;5017742;28;20042;-74
2020/12/17 05:52:15;;;;;;;15.95;3.17;;;9.90;88.90;;;;;;5018035;28;20044;-74
2020/12/17 05:54:59;;;;;;;12.23;2.28;;;9.80;89.20;;;;;;5034887;28;20038;-74
2020/12/17 05:57:25;;;;;;;19.30;1.70;;;9.70;88.80;;;;;;5037198;28;20068;-74
2020/12/17 06:00:03;;;;;;;18.05;1.27;;;10.10;89.20;;;;;;5033974;28;20489;-74
2020/12/17 06:02:30;;;;;;;17.23;1.70;;;9.70;89.00;;;;;;5026925;28;20037;-75
2020/12/17 06:05:11;;;;;;;16.58;1.65;;;9.90;89.30;;;;;;5015667;28;20061;-75
2020/12/17 06:07:49;;;;;;;10.50;2.15;;;9.60;89.10;;;;;;5029237;28;20052;-75
2020/12/17 06:10:22;;;;;;;14.93;2.60;;;9.70;89.10;;;;;;5033913;28;20526;-75
2020/12/17 06:12:56;;;;;;;25.63;4.15;;;9.80;88.90;;;;;;5036479;28;20037;-75
2020/12/17 06:15:29;;;;;;;17.95;2.15;;;9.80;89.00;;;;;;5037017;28;20069;-75
2020/12/17 06:17:57;;;;;;;15.63;1.85;;;9.50;88.60;;;;;;5036938;28;20045;-75
2020/12/17 06:20:25;;;;;;;15.85;1.95;;;9.70;88.50;;;;;;5036751;28;20041;-74
2020/12/17 06:23:08;;;;;;;20.00;3.55;;;9.50;88.50;;;;;;5036654;28;20047;-74
2020/12/17 06:25:36;;;;;;;17.98;2.85;;;9.60;89.20;;;;;;5036890;28;20145;-75
2020/12/17 06:28:02;;;;;;;17.63;3.28;;;9.60;88.50;;;;;;5036320;28;20037;-74
2020/12/17 06:30:30;;;;;;;12.85;1.98;;;9.70;88.40;;;;;;5036467;28;20350;-74
2020/12/17 06:33:01;;;;;;;20.70;3.30;;;9.60;88.40;;;;;;5036367;28;20033;-74
2020/12/17 06:35:52;;;;;;;16.48;1.70;;;9.60;88.40;;;;;;5036279;28;20037;-74
2020/12/17 06:38:23;;;;;;;17.30;1.42;;;9.60;88.80;;;;;;5036548;28;20044;-74
2020/12/17 06:40:49;;;;;;;13.32;1.10;;;9.70;88.70;;;;;;5035850;28;20132;-74
2020/12/17 06:43:33;;;;;;;12.40;1.25;;;9.50;88.60;;;;;;5031524;28;20037;-73
2020/12/17 06:46:00;;;;;;;17.55;2.30;;;9.60;88.80;;;;;;5015387;28;20037;-74
2020/12/17 06:48:43;;;;;;;19.27;2.83;;;9.40;88.60;;;;;;5016413;28;20026;-74
2020/12/17 06:51:34;;;;;;;15.13;2.35;;;9.90;89.00;;;;;;5026050;28;20053;-75
2020/12/17 06:54:03;;;;;;;12.65;2.83;;;9.40;88.50;;;;;;5032327;28;20037;-74
2020/12/17 06:56:29;;;;;;;17.30;2.97;;;9.50;88.50;;;;;;5010449;28;20037;-75
2020/12/17 06:59:14;;;;;;;18.15;3.33;;;9.40;88.20;;;;;;5022301;28;20046;-74
2020/12/17 07:01:40;;;;;;;17.63;3.50;;;9.20;88.00;;;;;;5015208;28;20169;-74
2020/12/17 07:04:07;;;;;;;28.20;3.70;;;9.40;87.60;;;;;;5053847;28;20053;-74
2020/12/17 07:06:33;;;;;;;24.20;4.00;;;9.10;87.50;;;;;;5055664;28;20290;-74
2020/12/17 07:09:00;;;;;;;15.13;4.38;;;9.50;87.90;;;;;;5056010;28;20485;-74
2020/12/17 07:11:42;;;;;;;21.38;4.40;;;9.40;88.10;;;;;;5050532;28;20052;-74
2020/12/17 07:14:11;;;;;;;24.65;5.20;;;9.40;88.10;;;;;;5030028;28;20058;-74
2020/12/17 07:16:37;;;;;;;23.25;7.63;;;9.30;88.30;;;;;;5023120;28;20496;-75
2020/12/17 07:19:20;;;;;;;60.20;7.43;;;9.10;88.30;;;;;;5025699;28;20050;-75
2020/12/17 07:22:01;;;;;;;26.05;7.07;;;9.00;88.10;;;;;;5033769;28;20052;-73
2020/12/17 07:24:42;;;;;;;48.25;11.02;;;9.10;88.00;;;;;;5017718;28;20120;-75
2020/12/17 07:27:19;;;;;;;24.27;5.78;;;9.30;88.30;;;;;;5014459;28;20041;-74
2020/12/17 07:29:48;;;;;;;31.38;5.85;;;9.00;88.60;;;;;;5015757;28;20045;-74
2020/12/17 07:32:28;;;;;;;56.78;6.80;;;9.30;88.90;;;;;;5029069;28;20037;-74
2020/12/17 07:34:58;;;;;;;104.47;8.02;;;9.50;89.00;;;;;;5034514;28;20046;-74
2020/12/17 07:37:53;;;;;;;176.98;11.30;;;9.50;89.10;;;;;;5035470;28;20041;-74
2020/12/17 07:40:43;;;;;;;50.20;12.90;;;9.60;88.80;;;;;;5035191;28;20516;-74
2020/12/17 07:43:14;;;;;;;34.65;11.88;;;9.60;88.50;;;;;;5034948;28;20038;-74
2020/12/17 07:45:42;;;;;;;20.15;7.75;;;9.70;88.80;;;;;;5035444;28;20042;-74
2020/12/17 07:48:38;;;;;;;17.00;4.90;;;9.70;88.90;;;;;;5034730;28;20044;-74
2020/12/17 07:51:06;;;;;;;;;;;9.50;88.90;;;;;;5035319;28;20088;-74
2020/12/17 07:53:32;;;;;;;12.95;3.65;;;9.70;88.80;;;;;;5035380;28;20003;-74
2020/12/17 07:55:59;;;;;;;20.17;3.22;;;9.30;88.40;;;;;;5034930;28;20043;-74
2020/12/17 07:58:25;;;;;;;16.63;5.35;;;9.60;88.50;;;;;;5034646;28;20099;-74
2020/12/17 08:00:58;;;;;;;16.88;6.05;;;9.80;88.60;;;;;;5022083;28;20046;-74
2020/12/17 08:03:24;;;;;;;20.88;5.35;;;9.60;88.20;;;;;;5014247;28;20088;-74
2020/12/17 08:05:52;;;;;;;11.88;4.28;;;9.70;88.10;;;;;;5014559;28;20053;-75
2020/12/17 08:08:20;;;;;;;18.23;4.05;;;9.80;88.10;;;;;;5014690;28;20059;-74
2020/12/17 08:10:46;;;;;;;21.20;5.30;;;9.80;88.00;;;;;;5014351;28;20140;-74
2020/12/17 08:13:15;;;;;;;105.28;6.07;;;9.70;87.90;;;;;;5014605;28;20049;-74
2020/12/17 08:15:41;;;;;;;88.95;5.63;;;9.70;87.80;;;;;;4996769;28;20073;-74
2020/12/17 08:18:07;;;;;;;73.68;6.05;;;9.80;88.00;;;;;;5014808;28;20038;-74
2020/12/17 08:20:33;;;;;;;68.43;4.50;;;9.80;88.10;;;;;;5014434;28;20069;-74
2020/12/17 08:22:59;;;;;;;52.33;3.97;;;9.80;88.20;;;;;;5013893;28;20076;-74
2020/12/17 08:25:26;;;;;;;41.67;3.70;;;9.80;88.20;;;;;;5014274;28;20046;-74
2020/12/17 08:27:53;;;;;;;22.63;5.55;;;10.00;88.00;;;;;;5014218;28;20049;-74
2020/12/17 08:30:21;;;;;;;31.02;7.20;;;10.00;87.90;;;;;;5013916;28;20048;-74
2020/12/17 08:32:52;;;;;;;24.20;6.60;;;11.00;88.00;;;;;;5014458;28;20048;-74
2020/12/17 08:35:22;;;;;;;18.35;6.50;;;11.70;87.40;;;;;;5013402;28;20045;-74
2020/12/17 08:37:49;;;;;;;13.23;5.28;;;12.50;86.30;;;;;;5033002;28;20099;-74
2020/12/17 08:40:21;;;;;;;13.75;5.72;;;13.20;85.00;;;;;;5032899;28;20543;-74
2020/12/17 08:42:50;;;;;;;16.55;7.10;;;13.90;83.70;;;;;;5033071;28;20046;-74
2020/12/17 08:45:19;;;;;;;12.45;6.20;;;14.80;82.60;;;;;;5031416;28;20037;-74
2020/12/17 08:47:49;;;;;;;8.90;4.13;;;15.30;79.70;;;;;;5013809;28;20041;-74
2020/12/17 08:50:15;;;;;;;6.65;4.05;;;15.70;77.50;;;;;;5013454;28;20042;-74
2020/12/17 08:52:42;;;;;;;6.15;3.63;;;15.90;75.90;;;;;;5022584;28;20037;-74
2020/12/17 08:55:09;;;;;;;4.95;2.13;;;15.90;75.30;;;;;;5033043;28;20044;-74
2020/12/17 08:57:36;;;;;;;4.93;2.28;;;16.40;74.80;;;;;;5033500;28;20048;-74
2020/12/17 09:00:23;;;;;;;10.73;5.20;;;16.70;73.10;;;;;;5032923;28;20051;-74
2020/12/17 09:02:58;;;;;;;29.73;13.77;;;16.90;71.60;;;;;;5033229;28;20477;-74
2020/12/17 09:05:24;;;;;;;30.92;12.80;;;16.90;70.10;;;;;;5033137;28;20492;-74
2020/12/17 09:07:53;;;;;;;9.88;5.90;;;16.90;70.00;;;;;;5033207;28;20033;-74
2020/12/17 09:10:18;;;;;;;8.10;3.50;;;16.80;70.20;;;;;;5032220;28;20041;-74
2020/12/17 09:12:44;;;;;;;7.05;3.83;;;16.50;71.00;;;;;;5032805;28;20152;-74
2020/12/17 09:15:12;;;;;;;7.10;3.78;;;16.30;71.50;;;;;;5033413;28;20050;-74
2020/12/17 09:17:39;;;;;;;6.53;3.55;;;16.00;71.40;;;;;;5033410;28;20550;-74
2020/12/17 09:20:20;;;;;;;5.18;2.60;;;15.60;71.80;;;;;;5032948;28;20136;-73
2020/12/17 09:22:46;;;;;;;3.08;1.90;;;15.60;71.80;;;;;;5033782;28;20132;-73
2020/12/17 09:25:13;;;;;;;5.40;1.58;;;15.70;71.70;;;;;;5033246;28;20041;-73
2020/12/17 09:27:40;;;;;;;4.30;1.67;;;15.70;72.50;;;;;;5033228;28;20041;-72
2020/12/17 09:30:10;;;;;;;7.07;1.60;;;15.80;72.90;;;;;;5033428;28;20041;-72
2020/12/17 09:32:50;;;;;;;4.85;1.80;;;15.50;72.70;;;;;;5033344;28;20049;-72
2020/12/17 09:35:17;;;;;;;4.55;1.52;;;15.30;72.60;;;;;;5033188;28;20034;-72
2020/12/17 09:37:56;;;;;;;8.70;3.58;;;15.20;72.70;;;;;;5033474;28;20037;-73
2020/12/17 09:40:23;;;;;;;7.00;2.20;;;15.00;73.10;;;;;;5033242;28;20053;-72
2020/12/17 09:43:00;;;;;;;5.60;2.10;;;14.70;73.60;;;;;;5033281;28;20053;-72
2020/12/17 09:45:26;;;;;;;9.30;3.97;;;14.60;74.40;;;;;;5033714;28;20037;-72
2020/12/17 09:47:52;;;;;;;7.22;3.85;;;14.30;75.40;;;;;;5033270;28;20041;-72
2020/12/17 09:50:18;;;;;;;12.35;5.88;;;14.20;75.50;;;;;;5032575;28;20068;-72
2020/12/17 09:52:45;;;;;;;12.70;6.60;;;14.10;76.10;;;;;;5009236;28;20039;-73
2020/12/17 09:55:14;;;;;;;8.48;4.30;;;13.90;78.30;;;;;;5016041;28;20474;-72
2020/12/17 09:57:43;;;;;;;5.95;2.75;;;14.00;80.70;;;;;;5031903;28;20045;-72
2020/12/17 10:00:14;;;;;;;5.78;3.15;;;13.90;81.60;;;;;;5032704;28;20096;-72
2020/12/17 10:02:43;;;;;;;5.68;2.65;;;13.80;81.90;;;;;;5032764;28;20065;-73
2020/12/17 10:05:13;;;;;;;7.50;4.22;;;13.70;81.20;;;;;;5032887;28;20058;-72
2020/12/17 10:07:46;;;;;;;10.10;3.17;;;13.70;81.10;;;;;;5032813;28;20041;-73
2020/12/17 10:10:12;;;;;;;9.30;3.40;;;13.70;80.70;;;;;;5032652;28;20056;-72
2020/12/17 10:12:38;;;;;;;6.28;2.30;;;13.60;80.70;;;;;;5032302;28;20041;-72
2020/12/17 10:15:04;;;;;;;7.13;1.88;;;13.50;80.80;;;;;;5031778;28;20030;-72
2020/12/17 10:17:30;;;;;;;8.20;2.20;;;13.60;81.10;;;;;;5032672;28;20087;-72
2020/12/17 10:19:55;;;;;;;4.53;1.67;;;13.60;81.40;;;;;;5033230;28;20041;-73
2020/12/17 10:22:21;;;;;;;5.90;1.55;;;13.60;81.70;;;;;;5035677;28;20103;-72
2020/12/17 10:24:47;;;;;;;7.40;1.70;;;13.70;81.90;;;;;;5036339;28;20037;-72
2020/12/17 10:27:13;;;;;;;8.13;1.80;;;13.80;82.30;;;;;;5036057;28;20412;-72
2020/12/17 10:29:39;;;;;;;10.40;2.00;;;13.80;82.70;;;;;;5035922;28;20046;-72
2020/12/17 10:32:04;;;;;;;5.72;1.88;;;13.70;82.80;;;;;;5035970;28;20041;-73
2020/12/17 10:34:30;;;;;;;9.50;2.10;;;13.90;83.20;;;;;;5036100;28;20045;-72
2020/12/17 10:36:56;;;;;;;9.15;2.25;;;13.80;83.40;;;;;;5036049;28;20519;-73
2020/12/17 10:39:22;;;;;;;6.22;1.92;;;13.90;83.80;;;;;;5035802;28;20480;-73
2020/12/17 10:41:48;;;;;;;8.98;3.42;;;14.00;84.50;;;;;;5035541;28;20524;-72
2020/12/17 10:44:14;;;;;;;6.60;1.55;;;14.20;84.30;;;;;;5035763;28;20040;-72
2020/12/17 10:46:40;;;;;;;10.25;2.20;;;14.10;84.40;;;;;;5034820;28;20036;-72
2020/12/17 10:49:06;;;;;;;9.43;2.33;;;14.20;84.50;;;;;;5035651;28;20077;-72
2020/12/17 10:51:32;;;;;;;7.13;1.10;;;14.20;84.70;;;;;;5035983;28;20527;-73
2020/12/17 10:53:58;;;;;;;6.22;1.15;;;14.20;84.50;;;;;;5035027;28;20038;-73
2020/12/17 10:56:24;;;;;;;2.92;0.57;;;14.30;84.70;;;;;;5035987;28;20037;-72
2020/12/17 10:58:51;;;;;;;4.10;0.65;;;14.30;84.80;;;;;;5035113;28;20124;-72
2020/12/17 11:01:20;;;;;;;7.07;0.88;;;14.30;84.70;;;;;;5035909;28;20050;-72
2020/12/17 11:03:46;;;;;;;5.07;0.95;;;14.30;84.80;;;;;;5035593;28;20125;-73
2020/12/17 11:06:17;;;;;;;6.60;0.80;;;14.20;84.80;;;;;;5035906;28;20596;-72
2020/12/17 11:08:43;;;;;;;6.78;0.75;;;14.40;85.50;;;;;;5036329;28;20072;-72
2020/12/17 11:11:11;;;;;;;6.95;0.68;;;14.50;85.10;;;;;;5035723;28;20080;-72
2020/12/17 11:13:37;;;;;;;6.72;0.60;;;14.50;85.10;;;;;;5034735;28;20121;-72
2020/12/17 11:16:03;;;;;;;6.40;0.57;;;14.50;85.20;;;;;;5035843;28;20120;-72
2020/12/17 11:18:29;;;;;;;5.32;0.65;;;14.50;85.30;;;;;;5034802;28;20045;-72
2020/12/17 11:20:55;;;;;;;7.45;0.75;;;14.60;85.40;;;;;;5034888;28;20053;-72
2020/12/17 11:23:21;;;;;;;4.50;0.38;;;14.70;85.50;;;;;;5034069;28;20033;-73
2020/12/17 11:25:46;;;;;;;7.30;0.47;;;14.60;85.40;;;;;;5035951;28;20045;-72
2020/12/17 11:28:12;;;;;;;4.75;0.55;;;14.60;85.50;;;;;;5036362;28;20040;-73
2020/12/17 11:30:38;;;;;;;5.10;0.35;;;14.80;85.50;;;;;;5034742;28;20103;-73
2020/12/17 11:33:04;;;;;;;5.10;0.50;;;14.70;85.50;;;;;;5034963;28;20055;-72
2020/12/17 11:35:32;;;;;;;9.13;0.60;;;14.70;85.60;;;;;;5035806;28;20128;-72
2020/12/17 11:37:59;;;;;;;5.60;0.52;;;14.70;85.50;;;;;;5035878;28;20041;-73
2020/12/17 11:40:25;;;;;;;5.22;0.30;;;14.70;85.50;;;;;;5035369;28;20045;-73
2020/12/17 11:42:51;;;;;;;6.25;0.30;;;14.80;85.70;;;;;;5035304;28;20191;-72
2020/12/17 11:45:17;;;;;;;5.00;0.47;;;14.70;85.60;;;;;;5035706;28;20037;-73
2020/12/17 11:47:44;;;;;;;4.05;0.30;;;14.90;85.60;;;;;;5035362;28;20033;-73
2020/12/17 11:50:10;;;;;;;8.63;1.13;;;14.90;85.70;;;;;;5035148;28;20065;-73
2020/12/17 11:52:37;;;;;;;6.03;0.60;;;14.90;85.90;;;;;;5035537;28;20041;-73
2020/12/17 11:55:06;;;;;;;3.55;0.30;;;14.90;85.90;;;;;;5035700;28;20072;-73
2020/12/17 11:57:32;;;;;;;8.48;1.23;;;15.00;85.70;;;;;;5035278;28;20068;-73
2020/12/17 11:59:58;;;;;;;7.93;1.20;;;15.20;86.00;;;;;;5034516;28;20106;-73
2020/12/17 12:02:24;;;;;;;4.88;0.55;;;15.10;85.90;;;;;;5034066;28;20045;-73
2020/12/17 12:04:50;;;;;;;4.80;0.70;;;15.30;86.20;;;;;;5029180;28;20065;-73
2020/12/17 12:07:15;;;;;;;6.15;0.88;;;15.30;86.20;;;;;;5025964;28;20085;-73
2020/12/17 12:09:41;;;;;;;5.00;0.60;;;15.30;85.00;;;;;;5033567;28;20111;-73
2020/12/17 12:12:07;;;;;;;8.48;1.00;;;15.50;84.40;;;;;;5034457;28;20572;-73
2020/12/17 12:14:33;;;;;;;4.82;0.47;;;15.30;83.80;;;;;;5034615;28;20130;-72
2020/12/17 12:16:59;;;;;;;9.13;0.95;;;15.30;83.60;;;;;;5034978;28;20051;-73
2020/12/17 12:19:25;;;;;;;7.22;1.13;;;15.30;83.30;;;;;;5034862;28;20140;-73
2020/12/17 12:21:52;;;;;;;7.65;0.82;;;15.40;83.20;;;;;;5034331;28;20029;-73
2020/12/17 12:24:18;;;;;;;4.57;0.50;;;15.30;83.10;;;;;;5034587;28;20033;-73
2020/12/17 12:26:45;;;;;;;4.80;0.30;;;15.30;83.30;;;;;;5034225;28;20042;-73
2020/12/17 12:29:11;;;;;;;4.50;0.47;;;15.10;83.10;;;;;;5034590;28;20041;-73
2020/12/17 12:31:36;;;;;;;6.55;0.90;;;15.10;83.20;;;;;;5033888;28;20060;-74
2020/12/17 12:34:03;;;;;;;6.60;0.80;;;15.10;83.10;;;;;;5033987;28;20087;-73
2020/12/17 12:36:30;;;;;;;5.90;0.70;;;15.20;83.90;;;;;;5034061;28;20026;-73
2020/12/17 12:38:55;;;;;;;6.07;0.50;;;15.10;83.60;;;;;;5033792;28;20401;-73
2020/12/17 12:41:21;;;;;;;7.00;0.90;;;15.20;83.70;;;;;;5034162;28;20041;-73
2020/12/17 12:43:47;;;;;;;6.07;0.70;;;15.20;83.80;;;;;;5017364;28;20088;-73
2020/12/17 12:46:20;;;;;;;7.20;0.70;;;15.40;84.40;;;;;;5014714;28;20120;-73
2020/12/17 12:48:46;;;;;;;5.03;0.90;;;15.40;84.20;;;;;;5018643;28;20125;-73